Time;durP1;ratioP1;P1;durP2;ratioP2;P2;SDS_P1;SDS_P2;PMS_P1;PMS_P2;Temp;Humidity;BMP_temperature;BMP_pressure;BME280_temperature;BME280_humidity;BME280_pressure;Samples;Min_cycle;Max_cycle;Signal;HPM_P1;HPM_P2
2021/08/04 00:00:27;;;;;;;20.40;3.22;;;;;;;16.12;100.00;100833.14;1718579;82;21000;-40
2021/08/04 00:02:53;;;;;;;6.70;3.33;;;;;;;16.12;100.00;100839.67;1738350;82;21087;-40
2021/08/04 00:05:20;;;;;;;33.65;4.85;;;;;;;16.09;100.00;100839.31;1738871;82;20936;-40
2021/08/04 00:07:46;;;;;;;12.80;3.95;;;;;;;16.09;100.00;100841.48;1735422;82;20944;-40
2021/08/04 00:10:13;;;;;;;16.60;3.87;;;;;;;16.12;100.00;100840.97;1723506;82;21557;-40
2021/08/04 00:12:41;;;;;;;4.65;2.83;;;;;;;16.11;100.00;100845.33;1741675;82;21561;-40
2021/08/04 00:15:09;;;;;;;15.65;3.22;;;;;;;16.14;100.00;100845.69;1741078;82;21043;-40
2021/08/04 00:17:35;;;;;;;16.80;3.60;;;;;;;16.14;100.00;100850.91;1735148;82;20976;-40
2021/08/04 00:20:04;;;;;;;10.48;3.40;;;;;;;16.11;100.00;100857.55;1739550;82;21011;-40
2021/08/04 00:22:30;;;;;;;16.85;3.62;;;;;;;16.08;100.00;100858.06;1730587;82;22246;-40
2021/08/04 00:24:58;;;;;;;12.78;3.27;;;;;;;16.06;100.00;100855.96;1729948;82;20972;-40
2021/08/04 00:27:27;;;;;;;10.93;3.52;;;;;;;16.06;100.00;100849.43;1715482;82;21713;-41
2021/08/04 00:29:56;;;;;;;10.28;2.90;;;;;;;16.06;100.00;100861.18;1722225;82;21015;-40
2021/08/04 00:32:24;;;;;;;12.80;3.85;;;;;;;16.01;100.00;100855.71;1713882;82;21502;-40
2021/08/04 00:34:51;;;;;;;14.43;3.72;;;;;;;15.97;100.00;100861.95;1724947;82;20959;-40
2021/08/04 00:37:17;;;;;;;15.85;3.55;;;;;;;15.94;100.00;100860.28;1727912;82;20953;-39
2021/08/04 00:39:44;;;;;;;17.25;4.22;;;;;;;15.91;100.00;100866.48;1741121;82;21151;-40
2021/08/04 00:42:11;;;;;;;8.33;3.55;;;;;;;15.86;100.00;100864.89;1735226;82;21486;-40
2021/08/04 00:44:38;;;;;;;21.37;3.98;;;;;;;15.78;100.00;100865.98;1717568;82;21052;-40
2021/08/04 00:47:05;;;;;;;20.95;3.20;;;;;;;15.73;100.00;100865.30;1715329;82;20947;-40
2021/08/04 00:49:33;;;;;;;17.55;3.52;;;;;;;15.70;100.00;100866.70;1724336;82;21063;-40
2021/08/04 00:52:00;;;;;;;15.40;3.75;;;;;;;15.67;100.00;100872.03;1729437;82;20997;-40
2021/08/04 00:54:26;;;;;;;21.70;3.83;;;;;;;15.61;100.00;100875.69;1721131;82;20945;-40
2021/08/04 00:56:53;;;;;;;33.18;3.90;;;;;;;15.59;100.00;100863.61;1701270;82;21052;-40
2021/08/04 00:59:20;;;;;;;68.95;8.70;;;;;;;15.59;100.00;100871.44;1727892;82;21070;-40
2021/08/04 01:02:09;;;;;;;44.65;5.50;;;;;;;15.58;100.00;100866.66;1720895;82;20971;-39
2021/08/04 01:04:51;;;;;;;32.58;6.10;;;;;;;15.61;100.00;100869.16;1712491;82;21228;-40
2021/08/04 01:07:44;;;;;;;32.80;4.85;;;;;;;15.68;100.00;100864.59;1720189;82;21507;-39
2021/08/04 01:10:20;;;;;;;29.05;5.10;;;;;;;15.73;100.00;100861.38;1729480;82;20886;-39
2021/08/04 01:13:02;;;;;;;;;;;;;;;15.75;100.00;100866.09;1737572;82;21011;-40
2021/08/04 01:15:35;;;;;;;38.65;5.15;;;;;;;15.77;100.00;100867.36;1714166;82;20462;-40
2021/08/04 01:18:01;;;;;;;34.80;4.67;;;;;;;15.79;100.00;100873.38;1723618;82;21008;-39
2021/08/04 01:20:28;;;;;;;37.70;5.28;;;;;;;15.77;100.00;100872.58;1733302;82;21035;-40
2021/08/04 01:23:46;;;;;;;35.15;4.58;;;;;;;15.72;100.00;100866.20;1740730;82;20975;-40
2021/08/04 01:26:39;;;;;;;22.15;4.30;;;;;;;15.69;100.00;100874.13;1725166;82;21008;-40
2021/08/04 01:29:13;;;;;;;18.00;4.12;;;;;;;15.57;100.00;100879.30;1707785;82;21025;-39
2021/08/04 01:31:40;;;;;;;29.72;4.15;;;;;;;15.46;100.00;100871.83;1715237;82;21069;-39
2021/08/04 01:34:07;;;;;;;20.05;4.08;;;;;;;15.38;100.00;100875.98;1727241;81;20952;-40
2021/08/04 01:36:33;;;;;;;24.18;4.20;;;;;;;15.31;100.00;100881.45;1728573;82;21549;-40
2021/08/04 01:39:01;;;;;;;33.15;4.50;;;;;;;15.26;100.00;100878.12;1725566;82;21483;-40
2021/08/04 01:41:28;;;;;;;27.02;4.42;;;;;;;15.21;100.00;100875.67;1711660;82;21012;-39
2021/08/04 01:43:55;;;;;;;23.73;3.72;;;;;;;15.15;100.00;100876.71;1705832;82;21146;-40
2021/08/04 01:46:21;;;;;;;28.17;3.90;;;;;;;15.12;100.00;100884.63;1709844;82;20968;-39
2021/08/04 01:48:48;;;;;;;12.03;3.87;;;;;;;15.07;100.00;100882.62;1711497;82;20996;-40
2021/08/04 01:51:17;;;;;;;13.53;3.12;;;;;;;15.05;100.00;100889.64;1709039;82;20913;-40
2021/08/04 01:53:45;;;;;;;7.45;3.15;;;;;;;15.05;100.00;100891.78;1713121;82;20983;-40
2021/08/04 01:56:14;;;;;;;10.98;3.70;;;;;;;15.03;100.00;100892.71;1712668;82;21086;-40
2021/08/04 01:58:40;;;;;;;9.98;3.30;;;;;;;15.02;100.00;100895.78;1705804;82;20985;-40
2021/08/04 02:01:07;;;;;;;10.95;3.50;;;;;;;15.03;100.00;100892.71;1707872;82;20959;-39
2021/08/04 02:03:33;;;;;;;6.80;2.85;;;;;;;15.03;100.00;100898.80;1720545;82;20992;-40
2021/08/04 02:06:07;;;;;;;9.10;3.20;;;;;;;15.02;100.00;100893.61;1713550;82;20937;-39
2021/08/04 02:08:42;;;;;;;10.03;3.05;;;;;;;15.02;100.00;100894.91;1705754;82;21016;-39
2021/08/04 02:11:24;;;;;;;3.50;2.37;;;;;;;15.00;100.00;100900.63;1704176;82;21016;-39
2021/08/04 02:14:10;;;;;;;6.90;3.00;;;;;;;15.02;100.00;100897.52;1717737;82;21106;-39
2021/08/04 02:17:06;;;;;;;8.78;3.12;;;;;;;15.07;100.00;100902.17;1718445;82;21008;-39
2021/08/04 02:19:46;;;;;;;13.10;3.17;;;;;;;15.15;100.00;100902.78;1725370;82;21502;-40
2021/08/04 02:22:29;;;;;;;9.00;2.80;;;;;;;15.21;100.00;100897.84;1727490;82;21115;-39
2021/08/04 02:25:15;;;;;;;6.60;3.05;;;;;;;15.23;100.00;100896.88;1732510;81;20971;-39
2021/08/04 02:27:42;;;;;;;9.85;2.60;;;;;;;15.23;100.00;100906.00;1739505;82;20949;-40
2021/08/04 02:30:13;;;;;;;6.67;2.40;;;;;;;15.28;100.00;100908.91;1742989;82;20948;-40
2021/08/04 02:32:41;;;;;;;5.22;2.87;;;;;;;15.30;100.00;100907.97;1715799;82;21026;-39
2021/08/04 02:35:08;;;;;;;12.15;3.35;;;;;;;15.34;100.00;100903.53;1745810;82;21820;-39
2021/08/04 02:37:35;;;;;;;10.85;3.30;;;;;;;15.38;100.00;100907.27;1745829;82;21011;-39
2021/08/04 02:40:04;;;;;;;12.75;2.85;;;;;;;15.42;100.00;100909.34;1705281;82;20956;-40
2021/08/04 02:42:31;;;;;;;11.63;2.55;;;;;;;15.45;100.00;100913.62;1732600;82;20971;-40
2021/08/04 02:44:59;;;;;;;5.03;2.60;;;;;;;15.46;100.00;100920.08;1688725;82;20994;-40
2021/08/04 02:47:26;;;;;;;11.38;2.75;;;;;;;15.47;100.00;100918.34;1732385;82;21165;-40
2021/08/04 02:49:52;;;;;;;11.05;2.52;;;;;;;15.45;100.00;100923.59;1739884;82;21007;-40
2021/08/04 02:52:18;;;;;;;6.62;2.42;;;;;;;15.45;100.00;100923.59;1746047;82;20999;-39
2021/08/04 02:54:49;;;;;;;10.03;3.17;;;;;;;15.44;100.00;100928.41;1735039;82;20964;-39
2021/08/04 02:57:15;;;;;;;8.15;2.92;;;;;;;15.43;100.00;100927.17;1747757;82;21561;-39
2021/08/04 02:59:42;;;;;;;7.45;2.90;;;;;;;15.46;100.00;100933.13;1709051;82;21993;-39
2021/08/04 03:02:08;;;;;;;16.70;3.45;;;;;;;15.49;100.00;100926.97;1719266;82;20987;-39
2021/08/04 03:04:35;;;;;;;12.50;2.80;;;;;;;15.55;100.00;100936.37;1719865;82;21018;-40
2021/08/04 03:07:01;;;;;;;26.90;5.30;;;;;;;15.60;100.00;100944.89;1705550;82;21252;-40
2021/08/04 03:09:28;;;;;;;20.12;5.05;;;;;;;15.66;100.00;100944.69;1727905;82;20967;-40
2021/08/04 03:11:55;;;;;;;28.17;5.62;;;;;;;15.74;100.00;100942.67;1747567;82;21161;-40
2021/08/04 03:14:21;;;;;;;29.65;5.50;;;;;;;15.86;100.00;100946.64;1731900;82;20909;-39
2021/08/04 03:16:48;;;;;;;30.88;5.33;;;;;;;15.94;100.00;100949.05;1719459;82;21564;-40
2021/08/04 03:19:15;;;;;;;16.73;4.85;;;;;;;16.03;100.00;100954.42;1733714;82;20997;-39
2021/08/04 03:21:42;;;;;;;23.77;5.00;;;;;;;16.18;100.00;100951.30;1727963;82;21490;-40
2021/08/04 03:24:08;;;;;;;20.52;5.65;;;;;;;16.31;100.00;100958.27;1743246;82;21513;-40
2021/08/04 03:26:35;;;;;;;32.25;5.00;;;;;;;16.38;100.00;100949.30;1730757;81;21039;-40
2021/08/04 03:29:02;;;;;;;30.10;5.42;;;;;;;16.47;100.00;100946.81;1731886;82;21206;-40
2021/08/04 03:31:29;;;;;;;27.20;6.25;;;;;;;16.53;100.00;100941.80;1721466;81;20976;-40
2021/08/04 03:33:56;;;;;;;26.20;5.15;;;;;;;16.60;100.00;100942.45;1710234;82;21019;-40
2021/08/04 03:36:23;;;;;;;23.80;5.85;;;;;;;16.67;100.00;100946.53;1727071;82;21154;-40
2021/08/04 03:38:51;;;;;;;31.33;5.25;;;;;;;16.74;100.00;100941.95;1732672;82;21534;-39
2021/08/04 03:41:17;;;;;;;21.00;5.67;;;;;;;16.81;100.00;100942.98;1705999;82;21009;-40
2021/08/04 03:43:43;;;;;;;17.98;4.72;;;;;;;16.89;100.00;100943.14;1706300;82;21015;-40
2021/08/04 03:46:10;;;;;;;18.50;5.17;;;;;;;16.97;100.00;100936.32;1718407;82;20980;-40
2021/08/04 03:48:37;;;;;;;16.70;5.33;;;;;;;17.05;100.00;100943.44;1710379;82;21148;-40
2021/08/04 03:51:04;;;;;;;16.27;5.50;;;;;;;17.16;100.00;100943.91;1731770;82;20988;-40
2021/08/04 03:53:31;;;;;;;16.52;5.08;;;;;;;17.31;100.00;100941.14;1715764;82;20960;-40
2021/08/04 03:55:57;;;;;;;17.77;5.70;;;;;;;17.51;100.00;100937.73;1729715;82;20960;-40
2021/08/04 03:58:24;;;;;;;12.33;6.12;;;;;;;17.72;100.00;100940.88;1727284;82;20995;-40
2021/08/04 04:00:50;;;;;;;7.50;5.70;;;;;;;17.94;100.00;100948.25;1707744;81;22172;-40
2021/08/04 04:03:16;;;;;;;8.65;5.97;;;;;;;18.19;100.00;100948.55;1715780;82;21664;-40
2021/08/04 04:05:44;;;;;;;16.17;6.00;;;;;;;18.34;100.00;100942.24;1726683;82;21589;-40
2021/08/04 04:08:12;;;;;;;18.65;6.03;;;;;;;18.47;100.00;100950.42;1706038;82;21000;-40
2021/08/04 04:10:40;;;;;;;9.53;6.08;;;;;;;18.68;100.00;100955.16;1705849;82;20948;-39
2021/08/04 04:13:06;;;;;;;6.70;5.47;;;;;;;18.90;100.00;100960.75;1712163;82;21118;-39
2021/08/04 04:15:34;;;;;;;6.45;5.45;;;;;;;19.11;99.76;100961.59;1712489;82;20937;-38
2021/08/04 04:18:00;;;;;;;10.95;5.85;;;;;;;19.20;96.66;100959.84;1714718;82;21012;-39
2021/08/04 04:20:27;;;;;;;10.78;5.95;;;;;;;19.22;93.82;100965.03;1722535;82;20980;-39
2021/08/04 04:22:53;;;;;;;9.53;6.20;;;;;;;19.30;92.05;100965.95;1733945;82;21050;-39
2021/08/04 04:25:21;;;;;;;8.78;5.58;;;;;;;19.44;90.25;100966.17;1734511;81;21614;-39
2021/08/04 04:27:48;;;;;;;6.28;5.53;;;;;;;19.56;88.96;100973.92;1719444;82;20975;-39
2021/08/04 04:30:14;;;;;;;13.00;5.95;;;;;;;19.73;87.74;100969.16;1719921;82;20987;-39
2021/08/04 04:32:41;;;;;;;15.35;5.53;;;;;;;19.95;86.52;100981.27;1726054;82;20983;-39
2021/08/04 04:35:09;;;;;;;10.35;4.95;;;;;;;20.16;85.54;100978.50;1725888;82;20971;-40
2021/08/04 04:37:37;;;;;;;8.25;4.35;;;;;;;20.33;83.53;100974.52;1714001;82;21469;-39
2021/08/04 04:40:05;;;;;;;7.75;5.35;;;;;;;20.52;81.37;100980.15;1742353;82;21015;-39
2021/08/04 04:42:31;;;;;;;9.08;4.97;;;;;;;20.75;80.66;100978.95;1745713;82;20998;-39
2021/08/04 04:44:59;;;;;;;10.45;4.92;;;;;;;21.01;79.14;100979.37;1724018;82;20971;-44
2021/08/04 04:47:26;;;;;;;5.65;4.72;;;;;;;21.27;77.99;100970.96;1716978;82;21027;-39
2021/08/04 04:49:52;;;;;;;8.88;5.03;;;;;;;21.38;75.90;100981.27;1745529;82;21123;-39
2021/08/04 04:52:20;;;;;;;8.18;4.90;;;;;;;21.51;74.95;100973.53;1742350;82;21671;-39
2021/08/04 04:54:47;;;;;;;10.10;5.00;;;;;;;21.63;73.00;100981.21;1735550;82;21596;-39
2021/08/04 04:57:13;;;;;;;5.92;5.20;;;;;;;21.65;73.23;100982.48;1692125;82;21579;-39
2021/08/04 04:59:40;;;;;;;7.05;4.70;;;;;;;21.79;74.35;100983.84;1735926;82;20972;-39
2021/08/04 05:02:06;;;;;;;7.50;4.78;;;;;;;22.08;74.12;100987.88;1737809;82;21786;-39
2021/08/04 05:04:32;;;;;;;5.87;4.47;;;;;;;22.33;73.02;100987.75;1747590;82;20979;-39
2021/08/04 05:07:00;;;;;;;4.85;4.45;;;;;;;22.58;72.34;100984.98;1736315;82;20987;-39
2021/08/04 05:09:27;;;;;;;5.22;4.37;;;;;;;22.77;70.71;100991.77;1721211;82;21493;-38
2021/08/04 05:11:53;;;;;;;5.20;4.37;;;;;;;22.95;69.80;100992.42;1719595;82;21746;-39
2021/08/04 05:14:20;;;;;;;6.08;3.75;;;;;;;22.99;68.59;100996.59;1735054;82;21055;-38
2021/08/04 05:16:48;;;;;;;8.85;4.12;;;;;;;22.98;67.09;100994.03;1724588;82;20935;-39
2021/08/04 05:19:14;;;;;;;8.95;4.47;;;;;;;22.92;67.28;100997.89;1732681;82;20924;-39
2021/08/04 05:21:41;;;;;;;7.10;4.15;;;;;;;23.02;66.84;100992.89;1741714;82;20960;-39
2021/08/04 05:24:08;;;;;;;11.20;4.40;;;;;;;23.23;66.76;100995.95;1734506;82;21047;-38
2021/08/04 05:26:34;;;;;;;6.90;4.87;;;;;;;23.38;65.29;100996.83;1738338;81;21103;-39
2021/08/04 05:29:01;;;;;;;9.30;5.08;;;;;;;23.56;65.41;100997.89;1719609;82;21052;-39
2021/08/04 05:31:28;;;;;;;9.70;5.30;;;;;;;23.76;64.27;101005.85;1699057;82;20910;-39
2021/08/04 05:33:54;;;;;;;4.80;4.35;;;;;;;24.01;62.57;101000.27;1727392;82;21502;-39
2021/08/04 05:36:21;;;;;;;11.88;4.83;;;;;;;24.21;61.03;101006.87;1727552;81;21032;-39
2021/08/04 05:38:47;;;;;;;6.00;4.42;;;;;;;24.34;60.89;101009.04;1698668;82;21018;-39
2021/08/04 05:41:14;;;;;;;8.50;4.60;;;;;;;24.50;60.04;101005.36;1719637;82;21233;-39
2021/08/04 05:43:40;;;;;;;5.78;3.40;;;;;;;24.64;59.02;101009.70;1721752;81;20984;-39
2021/08/04 05:46:07;;;;;;;4.25;3.85;;;;;;;24.67;58.56;101011.66;1716129;81;20957;-39
2021/08/04 05:48:35;;;;;;;8.68;4.08;;;;;;;24.68;58.44;101017.32;1714970;82;21091;-39
2021/08/04 05:51:02;;;;;;;3.60;3.33;;;;;;;24.71;58.46;101012.77;1727682;82;21099;-40
2021/08/04 05:53:28;;;;;;;6.00;3.45;;;;;;;24.85;57.39;101015.80;1713677;82;20952;-39
2021/08/04 05:55:55;;;;;;;5.45;3.50;;;;;;;24.93;56.75;101014.31;1708118;82;21024;-39
2021/08/04 05:58:21;;;;;;;6.70;3.60;;;;;;;25.02;56.40;101014.60;1714717;82;20940;-39
2021/08/04 06:00:47;;;;;;;5.15;3.80;;;;;;;25.06;55.83;101018.72;1706932;82;21070;-39
2021/08/04 06:03:14;;;;;;;6.25;3.35;;;;;;;25.17;55.36;101012.20;1714117;82;21041;-40
2021/08/04 06:05:41;;;;;;;4.05;3.65;;;;;;;25.21;55.09;101015.45;1727420;82;21035;-40
2021/08/04 06:08:10;;;;;;;5.35;3.40;;;;;;;25.09;55.06;101018.03;1736088;81;21023;-40
2021/08/04 06:10:38;;;;;;;3.95;3.30;;;;;;;25.03;55.98;101014.51;1710701;82;22244;-39
2021/08/04 06:13:04;;;;;;;5.00;3.40;;;;;;;25.09;55.88;101013.20;1724906;82;20898;-39
2021/08/04 06:15:31;;;;;;;6.95;2.80;;;;;;;25.06;57.11;101015.61;1711658;82;21767;-39
2021/08/04 06:17:59;;;;;;;5.40;3.27;;;;;;;25.12;55.95;101019.59;1720296;82;21487;-39
2021/08/04 06:20:25;;;;;;;7.85;3.85;;;;;;;25.14;55.48;101016.85;1732829;81;21543;-39
2021/08/04 06:22:52;;;;;;;4.72;3.67;;;;;;;25.23;54.68;101021.48;1716001;82;21029;-40
2021/08/04 06:25:20;;;;;;;3.67;3.02;;;;;;;25.29;54.55;101014.44;1718558;82;20988;-39
2021/08/04 06:27:49;;;;;;;6.50;3.62;;;;;;;25.30;55.59;101012.63;1732136;80;21557;-39
2021/08/04 06:30:15;;;;;;;7.12;3.27;;;;;;;25.24;56.25;101018.73;1734400;81;21054;-39
2021/08/04 06:32:42;;;;;;;6.45;3.40;;;;;;;25.09;55.76;101015.39;1719556;82;21039;-39
2021/08/04 06:35:10;;;;;;;9.83;3.90;;;;;;;24.99;56.69;101017.47;1707167;83;20995;-39
2021/08/04 06:37:37;;;;;;;5.37;3.35;;;;;;;24.91;56.66;101016.69;1726654;82;20931;-39
2021/08/04 06:40:05;;;;;;;5.53;3.42;;;;;;;24.87;56.82;101010.75;1719348;82;21062;-39
2021/08/04 06:42:32;;;;;;;5.28;4.20;;;;;;;24.86;55.61;101017.00;1726451;82;21023;-39
2021/08/04 06:44:58;;;;;;;8.10;4.60;;;;;;;24.87;55.75;101007.27;1729835;82;21474;-39
2021/08/04 06:47:25;;;;;;;8.75;4.25;;;;;;;24.82;55.54;101012.42;1722946;82;21529;-39
2021/08/04 06:49:53;;;;;;;6.90;5.05;;;;;;;24.86;55.82;101008.23;1726508;82;21463;-39
2021/08/04 06:52:19;;;;;;;10.32;4.60;;;;;;;24.92;55.20;101008.65;1719119;82;21740;-39
2021/08/04 06:54:46;;;;;;;12.90;4.53;;;;;;;24.99;54.84;101013.01;1718631;83;21020;-39
2021/08/04 06:57:13;;;;;;;13.25;5.33;;;;;;;25.00;54.73;101010.73;1718816;83;21055;-39
2021/08/04 06:59:39;;;;;;;14.85;5.78;;;;;;;25.03;54.74;101008.35;1718653;83;21095;-39
2021/08/04 07:02:05;;;;;;;9.00;4.95;;;;;;;25.10;54.47;101013.56;1706742;80;20924;-39
2021/08/04 07:04:32;;;;;;;18.48;5.05;;;;;;;25.12;53.06;101018.27;1748727;82;21160;-39
2021/08/04 07:07:01;;;;;;;17.35;5.53;;;;;;;25.01;52.55;101018.20;1718907;82;20997;-40
2021/08/04 07:09:27;;;;;;;14.50;4.95;;;;;;;25.04;55.21;101020.63;1691763;83;21091;-39
2021/08/04 07:11:54;;;;;;;9.55;4.40;;;;;;;25.13;53.94;101022.61;1726762;82;21062;-39
2021/08/04 07:14:21;;;;;;;10.58;4.15;;;;;;;25.22;53.51;101020.66;1718928;83;21070;-39
2021/08/04 07:16:49;;;;;;;11.93;4.42;;;;;;;25.31;53.39;101020.94;1718828;83;20975;-40
2021/08/04 07:19:16;;;;;;;10.55;4.10;;;;;;;25.46;54.79;101021.62;1718704;83;21035;-39
2021/08/04 07:21:44;;;;;;;7.78;3.55;;;;;;;25.59;52.19;101025.58;1691826;83;20991;-39
2021/08/04 07:24:10;;;;;;;13.65;4.10;;;;;;;25.66;51.05;101027.67;1697702;83;21201;-39
2021/08/04 07:26:38;;;;;;;10.82;4.10;;;;;;;25.67;51.00;101027.20;1732926;82;21103;-39
2021/08/04 07:29:04;;;;;;;13.22;5.17;;;;;;;25.78;51.53;101029.89;1734526;82;21130;-39
2021/08/04 07:31:33;;;;;;;15.70;4.30;;;;;;;25.80;50.85;101030.63;1706977;82;21028;-39
2021/08/04 07:33:59;;;;;;;12.85;4.78;;;;;;;25.89;52.10;101038.38;1705135;83;21502;-39
2021/08/04 07:36:27;;;;;;;18.55;4.37;;;;;;;26.04;52.39;101034.23;1705187;83;21545;-39
2021/08/04 07:38:53;;;;;;;15.90;4.28;;;;;;;26.24;52.96;101037.55;1705676;82;21617;-39
2021/08/04 07:41:20;;;;;;;24.37;4.78;;;;;;;26.39;50.70;101032.88;1731473;82;20969;-39
2021/08/04 07:43:52;;;;;;;13.85;4.15;;;;;;;26.42;49.63;101033.13;1705118;84;21024;-39
2021/08/04 07:46:22;;;;;;;17.23;4.10;;;;;;;26.47;50.20;101038.09;1706650;82;21028;-39
2021/08/04 07:48:48;;;;;;;14.00;3.40;;;;;;;26.56;51.16;101041.85;1705145;84;20960;-39
2021/08/04 07:51:15;;;;;;;10.72;3.55;;;;;;;26.61;45.91;101033.05;1705239;84;21004;-40
2021/08/04 07:53:42;;;;;;;7.67;2.83;;;;;;;26.45;46.43;101032.89;1707074;82;20988;-39
2021/08/04 07:56:09;;;;;;;4.83;2.30;;;;;;;26.51;48.76;101027.60;1688258;82;20952;-39
2021/08/04 07:58:36;;;;;;;7.60;2.40;;;;;;;26.75;48.07;101027.48;1729480;82;21020;-39
2021/08/04 08:01:02;;;;;;;5.40;1.77;;;;;;;27.07;45.43;101017.97;1734294;82;21011;-39
2021/08/04 08:03:30;;;;;;;9.13;2.35;;;;;;;27.36;43.15;101022.28;1733378;82;20993;-39
2021/08/04 08:05:57;;;;;;;7.92;2.33;;;;;;;27.58;42.82;101023.69;1680216;84;20999;-39
2021/08/04 08:08:23;;;;;;;8.03;2.42;;;;;;;27.62;43.73;101017.15;1705207;83;20953;-39
2021/08/04 08:10:51;;;;;;;9.55;2.50;;;;;;;27.66;43.21;101015.45;1713791;82;21036;-39
2021/08/04 08:13:17;;;;;;;6.37;2.02;;;;;;;27.58;43.78;101015.25;1734647;81;20989;-40
2021/08/04 08:15:45;;;;;;;5.72;1.77;;;;;;;27.63;41.95;101018.37;1727906;82;21036;-39
2021/08/04 08:18:14;;;;;;;4.35;1.90;;;;;;;27.85;42.49;101011.74;1716536;82;20941;-39
2021/08/04 08:20:42;;;;;;;5.85;2.10;;;;;;;28.14;42.77;101008.44;1733172;82;20980;-39
2021/08/04 08:23:09;;;;;;;9.00;2.10;;;;;;;28.34;40.73;101004.96;1721536;81;20949;-39
2021/08/04 08:25:36;;;;;;;7.35;2.60;;;;;;;28.44;41.23;101005.52;1708351;82;20945;-39
2021/08/04 08:28:03;;;;;;;7.90;2.83;;;;;;;28.52;42.08;101006.52;1739286;81;21019;-39
2021/08/04 08:30:30;;;;;;;3.72;2.50;;;;;;;28.60;42.11;101007.70;1729804;82;21756;-40
2021/08/04 08:32:56;;;;;;;5.75;2.20;;;;;;;28.84;43.07;100999.91;1713035;83;21603;-40
2021/08/04 08:35:23;;;;;;;2.50;2.30;;;;;;;29.09;42.09;101005.22;1701408;82;20975;-40
2021/08/04 08:37:50;;;;;;;2.52;2.00;;;;;;;29.33;41.38;101005.34;1743144;82;21012;-40
2021/08/04 08:42:46;;;;;;;4.40;1.92;;;;;;;29.46;39.83;100991.30;1814890;79;22589;-39
2021/08/04 08:45:13;;;;;;;2.65;1.87;;;;;;;29.32;40.48;100996.98;1757155;80;20963;-39
2021/08/04 08:47:42;;;;;;;2.85;2.30;;;;;;;29.42;38.74;100992.53;1788042;80;21105;-39
2021/08/04 08:50:10;;;;;;;8.08;2.47;;;;;;;29.25;39.74;100992.69;1787491;80;20931;-40
2021/08/04 08:52:36;;;;;;;2.27;1.87;;;;;;;29.30;40.00;100985.63;1787961;80;21308;-40
2021/08/04 08:55:05;;;;;;;6.72;2.10;;;;;;;29.17;38.56;100992.05;1787898;80;21512;-40
2021/08/04 08:57:31;;;;;;;2.45;2.10;;;;;;;29.04;39.10;100986.97;1787826;79;21009;-39
2021/08/04 08:59:58;;;;;;;5.25;2.22;;;;;;;29.04;39.38;100988.80;1787898;80;21160;-40
2021/08/04 09:02:26;;;;;;;9.80;2.33;;;;;;;29.24;40.93;100985.20;1787800;80;20986;-40
2021/08/04 09:05:05;;;;;;;3.45;1.70;;;;;;;29.62;40.54;100985.40;1755968;80;21034;-40
2021/08/04 09:07:34;;;;;;;1.60;1.50;;;;;;;29.90;39.79;100986.84;1775429;80;20987;-40
2021/08/04 09:10:30;;;;;;;4.65;1.62;;;;;;;30.22;37.27;100979.52;1776537;80;20967;-40
2021/08/04 09:13:02;;;;;;;1.32;1.20;;;;;;;30.54;36.08;100980.44;1783520;80;21085;-39
2021/08/04 09:15:40;;;;;;;1.67;1.57;;;;;;;30.37;35.25;100979.37;1768958;80;20992;-39
2021/08/04 09:18:11;;;;;;;1.82;1.30;;;;;;;30.13;34.88;100973.22;1770550;80;20971;-40
2021/08/04 09:20:53;;;;;;;3.65;1.50;;;;;;;30.35;36.39;100969.34;1784378;80;21560;-40
2021/08/04 09:23:26;;;;;;;7.37;1.50;;;;;;;30.64;35.98;100975.09;1753545;80;20983;-40
2021/08/04 09:26:14;;;;;;;1.40;1.30;;;;;;;30.89;36.79;100971.38;1761728;80;21123;-40
2021/08/04 09:29:05;;;;;;;3.30;1.30;;;;;;;30.95;33.44;100969.94;1751840;81;21039;-39
2021/08/04 09:31:51;;;;;;;1.55;1.45;;;;;;;30.78;33.87;100967.07;1746723;81;21034;-40
2021/08/04 09:34:40;;;;;;;1.65;1.15;;;;;;;30.54;32.57;100968.42;1753720;81;20936;-40
2021/08/04 09:37:14;;;;;;;2.75;0.95;;;;;;;30.43;33.36;100969.95;1756185;81;20927;-39
2021/08/04 09:39:46;;;;;;;2.20;0.95;;;;;;;30.43;30.13;100965.95;1756672;81;21951;-40
2021/08/04 09:42:13;;;;;;;2.08;1.15;;;;;;;30.52;31.34;100969.06;1749631;81;20967;-40
2021/08/04 09:44:52;;;;;;;1.52;1.20;;;;;;;30.59;32.86;100964.49;1749114;81;20931;-40
2021/08/04 09:47:18;;;;;;;3.60;1.12;;;;;;;30.71;31.68;100962.50;1748708;82;20900;-40
2021/08/04 09:50:01;;;;;;;1.07;1.02;;;;;;;30.73;32.77;100956.51;1713731;83;21005;-40
2021/08/04 09:52:30;;;;;;;2.30;1.05;;;;;;;30.90;31.64;100955.69;1720517;82;21135;-40
2021/08/04 09:55:13;;;;;;;2.83;1.25;;;;;;;31.27;31.09;100951.77;1718950;83;21523;-40
2021/08/04 09:57:42;;;;;;;2.77;1.10;;;;;;;31.30;29.61;100946.11;1690766;83;20934;-40
2021/08/04 10:00:11;;;;;;;3.52;1.17;;;;;;;31.22;31.30;100944.19;1716751;83;21041;-40
2021/08/04 10:02:37;;;;;;;2.12;1.55;;;;;;;31.36;31.25;100942.81;1720549;82;20993;-40
2021/08/04 10:05:21;;;;;;;5.83;1.27;;;;;;;31.65;29.24;100931.01;1748905;82;21091;-40
2021/08/04 10:08:09;;;;;;;1.57;1.02;;;;;;;31.85;29.58;100931.70;1748594;82;20955;-40
2021/08/04 10:10:38;;;;;;;1.05;0.98;;;;;;;31.52;28.00;100930.07;1698078;82;21022;-40
2021/08/04 10:13:08;;;;;;;2.02;1.50;;;;;;;30.85;28.02;100935.27;1748513;82;21462;-39
2021/08/04 10:15:41;;;;;;;2.67;1.55;;;;;;;30.59;29.87;100937.27;1748475;82;20931;-40
2021/08/04 10:18:17;;;;;;;1.50;1.32;;;;;;;30.68;30.43;100938.25;1748672;82;22229;-40
2021/08/04 10:20:45;;;;;;;2.67;1.22;;;;;;;31.09;30.02;100930.69;1744182;82;21501;-39
2021/08/04 10:23:17;;;;;;;2.52;1.22;;;;;;;31.51;30.00;100922.56;1748722;82;21675;-40
2021/08/04 10:25:44;;;;;;;4.03;1.32;;;;;;;31.82;29.55;100916.80;1748549;80;21018;-40
2021/08/04 10:28:11;;;;;;;1.87;1.25;;;;;;;31.86;29.55;100927.17;1721165;82;21010;-40
2021/08/04 10:30:42;;;;;;;5.60;1.47;;;;;;;31.67;28.49;100927.19;1748912;82;21138;-40
2021/08/04 10:33:06;;;;;;;1.30;1.20;;;;;;;31.28;29.14;100932.05;1747662;81;21027;-40
2021/08/04 10:35:35;;;;;;;25.23;3.85;;;;;;;31.03;31.13;100927.78;1748928;82;20925;-40
2021/08/04 10:38:03;;;;;;;11.10;2.87;;;;;;;31.04;30.92;100920.10;1748658;82;21019;-40
2021/08/04 10:40:30;;;;;;;13.85;2.40;;;;;;;31.15;31.70;100928.39;1748657;82;21639;-40
2021/08/04 10:42:57;;;;;;;15.90;3.10;;;;;;;31.35;32.96;100923.27;1748560;82;22027;-40
2021/08/04 10:45:28;;;;;;;4.37;1.67;;;;;;;31.59;31.44;100923.61;1748619;82;21011;-40
2021/08/04 10:48:14;;;;;;;2.50;1.60;;;;;;;31.69;31.17;100923.01;1748717;82;20951;-40
2021/08/04 10:50:40;;;;;;;4.00;1.30;;;;;;;31.64;30.15;100923.98;1721068;82;21015;-41
2021/08/04 10:53:07;;;;;;;4.58;1.50;;;;;;;31.64;31.24;100922.16;1748731;82;21457;-41
2021/08/04 10:55:54;;;;;;;7.08;1.50;;;;;;;31.80;33.54;100921.95;1748702;82;21856;-40
2021/08/04 10:58:20;;;;;;;6.53;1.52;;;;;;;32.01;32.62;100917.58;1748629;81;20952;-41
2021/08/04 11:00:47;;;;;;;16.00;2.37;;;;;;;32.15;30.26;100912.61;1748337;82;20994;-40
2021/08/04 11:03:44;;;;;;;6.80;1.80;;;;;;;32.08;31.11;100922.63;1748715;81;20964;-41
2021/08/04 11:06:12;;;;;;;40.63;4.12;;;;;;;31.93;29.65;100918.36;1720941;82;20987;-41
2021/08/04 11:08:40;;;;;;;6.60;1.72;;;;;;;31.80;30.03;100921.46;1748596;82;21133;-41
2021/08/04 11:11:07;;;;;;;6.22;1.62;;;;;;;32.03;29.93;100918.26;1748709;82;20959;-40
2021/08/04 11:13:54;;;;;;;1.42;1.27;;;;;;;32.08;29.01;100923.11;1721192;82;21026;-41
2021/08/04 11:16:31;;;;;;;3.80;1.30;;;;;;;31.75;29.62;100916.20;1743629;81;21044;-39
2021/08/04 11:19:09;;;;;;;1.60;1.50;;;;;;;31.74;30.58;100909.17;1690589;83;20945;-39
2021/08/04 11:21:36;;;;;;;4.50;1.60;;;;;;;31.78;29.88;100919.45;1719013;83;21115;-40
2021/08/04 11:24:06;;;;;;;4.03;1.50;;;;;;;31.67;29.34;100915.64;1718663;82;20999;-40
2021/08/04 11:26:37;;;;;;;6.90;1.70;;;;;;;31.44;29.92;100913.45;1718982;83;20947;-40
2021/08/04 11:29:06;;;;;;;3.80;1.70;;;;;;;31.46;30.65;100912.84;1718657;83;21046;-40
2021/08/04 11:31:33;;;;;;;3.00;1.62;;;;;;;31.54;31.39;100910.21;1720669;82;21260;-40